createdAt,value
2023-01-17T00:02:05.949Z,18.88
2023-01-17T00:05:27.711Z,17.42
2023-01-17T00:08:49.080Z,17.98
2023-01-17T00:11:51.868Z,18.87
2023-01-17T00:14:56.210Z,18.40
2023-01-17T00:17:58.765Z,18.08
2023-01-17T00:21:19.618Z,17.55
2023-01-17T00:24:40.251Z,18.77
2023-01-17T00:27:42.702Z,17.00
2023-01-17T00:30:45.829Z,17.73
2023-01-17T00:33:48.287Z,17.42
2023-01-17T00:36:50.702Z,16.40
2023-01-17T00:39:53.222Z,16.30
2023-01-17T00:43:13.990Z,16.40
2023-01-17T00:46:35.283Z,16.33
2023-01-17T00:49:56.262Z,16.40
2023-01-17T00:53:22.413Z,16.77
2023-01-17T00:56:43.119Z,17.10
2023-01-17T01:00:04.591Z,15.80
2023-01-17T01:03:30.027Z,14.80
2023-01-17T01:06:50.959Z,16.45
2023-01-17T01:10:12.320Z,15.45
2023-01-17T01:13:33.679Z,14.52
2023-01-17T01:16:54.944Z,16.10
2023-01-17T01:20:15.509Z,16.13
2023-01-17T01:23:36.263Z,13.93
2023-01-17T01:26:57.003Z,15.15
2023-01-17T01:30:18.147Z,15.95
2023-01-17T01:33:20.709Z,14.57
2023-01-17T01:36:23.164Z,14.33
2023-01-17T01:39:25.898Z,16.80
2023-01-17T01:42:28.395Z,17.17
2023-01-17T01:45:32.732Z,16.88
2023-01-17T01:48:43.938Z,16.73
2023-01-17T01:51:52.628Z,16.80
2023-01-17T01:55:04.273Z,17.15
2023-01-17T01:58:14.399Z,17.05
2023-01-17T02:01:18.108Z,16.40
2023-01-17T02:04:22.748Z,17.17
2023-01-17T02:07:36.783Z,17.63
2023-01-17T02:10:41.027Z,16.73
2023-01-17T02:13:43.823Z,16.10
2023-01-17T02:17:20.131Z,15.80
2023-01-17T02:20:43.861Z,18.33
2023-01-17T02:24:04.769Z,16.13
2023-01-17T02:27:32.936Z,15.52
2023-01-17T02:31:12.755Z,17.30
2023-01-17T02:34:22.895Z,15.93
2023-01-17T02:37:40.295Z,15.57
2023-01-17T02:40:49.572Z,17.73
2023-01-17T02:43:53.690Z,16.02
2023-01-17T02:46:58.138Z,17.92
2023-01-17T02:50:07.645Z,17.15
2023-01-17T02:53:40.435Z,17.13
2023-01-17T02:57:01.589Z,16.43
2023-01-17T03:00:18.237Z,17.08
2023-01-17T03:03:30.558Z,16.88
2023-01-17T03:06:40.149Z,18.00
2023-01-17T03:09:45.921Z,17.30
2023-01-17T03:12:48.486Z,17.00
2023-01-17T03:15:51.094Z,17.05
2023-01-17T03:18:56.672Z,17.83
2023-01-17T03:21:59.226Z,16.92
2023-01-17T03:25:01.696Z,15.47
2023-01-17T03:28:04.526Z,16.07
2023-01-17T03:31:07.051Z,15.00
2023-01-17T03:34:09.535Z,15.70
2023-01-17T03:37:12.097Z,14.60
2023-01-17T03:40:14.731Z,14.40
2023-01-17T03:43:17.165Z,13.90
2023-01-17T03:46:24.991Z,13.07
2023-01-17T03:49:27.511Z,13.80
2023-01-17T03:52:30.021Z,14.25
2023-01-17T03:55:32.530Z,15.73
2023-01-17T03:58:35.246Z,14.63
2023-01-17T04:01:37.873Z,13.43
2023-01-17T04:04:40.442Z,13.52
2023-01-17T04:07:42.923Z,12.75
2023-01-17T04:10:45.422Z,12.77
2023-01-17T04:13:47.872Z,12.73
2023-01-17T04:16:50.737Z,12.70
2023-01-17T04:19:53.523Z,12.52
2023-01-17T04:22:55.983Z,13.52
2023-01-17T04:25:58.466Z,13.20
2023-01-17T04:29:01.020Z,12.20
2023-01-17T04:32:03.614Z,12.13
2023-01-17T04:35:07.211Z,11.25
2023-01-17T04:38:09.682Z,11.85
2023-01-17T04:41:12.435Z,12.20
2023-01-17T04:44:18.762Z,11.27
2023-01-17T04:47:21.366Z,11.00
2023-01-17T04:50:24.089Z,11.63
2023-01-17T04:53:26.572Z,12.55
2023-01-17T04:56:29.038Z,11.80
2023-01-17T04:59:31.533Z,11.97
2023-01-17T05:02:33.967Z,11.45
2023-01-17T05:05:36.538Z,14.57
2023-01-17T05:08:39.061Z,10.95
2023-01-17T05:11:41.575Z,11.20
2023-01-17T05:14:44.002Z,10.27
2023-01-17T05:17:46.498Z,10.38
2023-01-17T05:20:49.122Z,10.73
2023-01-17T05:23:51.603Z,10.95
2023-01-17T05:26:54.852Z,9.80
2023-01-17T05:29:57.416Z,8.10
2023-01-17T05:32:59.945Z,7.78
2023-01-17T05:36:03.662Z,8.75
2023-01-17T05:39:06.215Z,8.40
2023-01-17T05:42:08.811Z,6.93
2023-01-17T05:45:12.496Z,7.60
2023-01-17T05:48:14.999Z,8.40
2023-01-17T05:51:17.679Z,7.90
2023-01-17T05:54:20.123Z,8.63
2023-01-17T05:57:22.612Z,7.90
2023-01-17T06:00:25.573Z,6.93
2023-01-17T06:03:28.115Z,7.65
2023-01-17T06:06:30.566Z,7.85
2023-01-17T06:09:33.779Z,6.78
2023-01-17T06:12:37.565Z,5.80
2023-01-17T06:15:40.236Z,6.67
2023-01-17T06:18:42.938Z,5.78
2023-01-17T06:21:45.430Z,6.15
2023-01-17T06:24:47.928Z,5.50
2023-01-17T06:27:50.628Z,6.10
2023-01-17T06:30:53.362Z,5.97
2023-01-17T06:33:56.012Z,6.32
2023-01-17T06:36:58.610Z,5.35
2023-01-17T06:40:01.353Z,6.03
2023-01-17T06:43:06.683Z,5.23
2023-01-17T06:46:09.181Z,4.77
2023-01-17T06:49:12.055Z,5.22
2023-01-17T06:52:14.589Z,5.15
2023-01-17T06:55:17.143Z,4.88
2023-01-17T06:58:19.634Z,4.57
2023-01-17T07:01:22.194Z,4.43
2023-01-17T07:04:24.874Z,3.97
2023-01-17T07:07:27.473Z,3.40
2023-01-17T07:10:30.079Z,4.47
2023-01-17T07:13:37.671Z,4.63
2023-01-17T07:16:40.461Z,3.47
2023-01-17T07:19:43.129Z,3.45
2023-01-17T07:22:46.128Z,2.88
2023-01-17T07:25:56.255Z,2.78
2023-01-17T07:28:58.795Z,2.00
2023-01-17T07:32:03.271Z,1.73
2023-01-17T07:35:07.564Z,2.03
2023-01-17T07:38:15.513Z,2.38
2023-01-17T07:41:18.134Z,1.52
2023-01-17T07:44:20.747Z,1.97
2023-01-17T07:47:24.802Z,1.83
2023-01-17T07:50:27.467Z,1.75
2023-01-17T07:53:33.045Z,2.50
2023-01-17T07:56:35.681Z,2.33
2023-01-17T07:59:38.240Z,1.47
2023-01-17T08:02:41.085Z,1.40
2023-01-17T08:05:52.371Z,0.98
2023-01-17T08:08:58.885Z,0.98
2023-01-17T08:12:01.578Z,1.00
2023-01-17T08:15:05.069Z,1.20
2023-01-17T08:18:07.653Z,0.70
2023-01-17T08:21:15.010Z,0.82
2023-01-17T08:24:17.450Z,0.57
2023-01-17T08:27:19.957Z,0.70
2023-01-17T08:30:22.480Z,0.80
2023-01-17T08:33:25.190Z,0.73
2023-01-17T08:36:28.729Z,1.10
2023-01-17T08:39:31.306Z,0.50
2023-01-17T08:42:39.291Z,0.88
2023-01-17T08:45:44.886Z,0.60
2023-01-17T08:48:47.466Z,0.40
2023-01-17T08:51:51.654Z,1.08
2023-01-17T08:54:54.325Z,1.00
2023-01-17T08:57:57.529Z,0.60
2023-01-17T09:01:02.690Z,0.50
2023-01-17T09:04:05.499Z,0.63
2023-01-17T09:07:08.157Z,0.40
2023-01-17T09:10:11.254Z,0.20
2023-01-17T09:13:13.910Z,0.55
2023-01-17T09:16:16.392Z,0.53
2023-01-17T09:19:19.261Z,0.10
2023-01-17T09:22:21.849Z,0.20
2023-01-17T09:25:24.459Z,0.40
2023-01-17T09:28:27.922Z,0.35
2023-01-17T09:31:30.704Z,0.27
2023-01-17T09:34:33.193Z,0.20
2023-01-17T09:37:35.798Z,0.20
2023-01-17T09:40:44.121Z,0.40
2023-01-17T09:43:55.593Z,0.15
2023-01-17T09:47:13.722Z,0.40
2023-01-17T09:50:33.316Z,0.30
2023-01-17T09:53:39.119Z,0.32
2023-01-17T09:56:48.949Z,0.40
2023-01-17T10:00:16.625Z,0.70
2023-01-17T10:03:37.436Z,0.20
2023-01-17T10:07:13.600Z,0.63
2023-01-17T10:10:29.600Z,0.60
2023-01-17T10:13:39.088Z,0.95
2023-01-17T10:17:21.631Z,0.60
2023-01-17T10:20:46.708Z,0.30
2023-01-17T10:24:03.845Z,0.60
2023-01-17T10:27:23.547Z,0.55
2023-01-17T10:30:38.148Z,0.28
2023-01-17T10:33:48.186Z,0.70
2023-01-17T10:37:00.451Z,0.50
2023-01-17T10:40:24.802Z,0.80
2023-01-17T10:43:39.498Z,0.77
2023-01-17T10:46:47.362Z,0.60
2023-01-17T10:49:57.754Z,0.50
2023-01-17T10:53:22.010Z,0.80
2023-01-17T10:56:28.694Z,0.60
2023-01-17T10:59:33.882Z,0.90
2023-01-17T11:02:43.163Z,1.08
2023-01-17T11:05:46.083Z,0.82
2023-01-17T11:09:00.631Z,0.40
2023-01-17T11:12:03.491Z,0.67
2023-01-17T11:15:22.089Z,0.85
2023-01-17T11:18:30.913Z,0.77
2023-01-17T11:21:33.765Z,0.80
2023-01-17T11:24:41.578Z,1.23
2023-01-17T11:28:00.593Z,0.80
2023-01-17T11:31:23.238Z,1.00
2023-01-17T11:34:33.107Z,0.80
2023-01-17T11:37:36.280Z,0.90
2023-01-17T11:40:46.621Z,0.90
2023-01-17T11:43:55.141Z,0.60
2023-01-17T11:47:12.775Z,0.52
2023-01-17T11:50:26.468Z,0.50
2023-01-17T11:53:33.314Z,0.63
2023-01-17T11:56:37.156Z,0.80
2023-01-17T11:59:44.987Z,0.50
2023-01-17T12:03:30.832Z,0.50
2023-01-17T12:06:56.476Z,0.73
2023-01-17T12:10:21.344Z,0.68
2023-01-17T12:14:03.394Z,0.50
2023-01-17T12:17:14.108Z,0.30
2023-01-17T12:20:57.950Z,0.75
2023-01-17T12:24:39.471Z,0.52
2023-01-17T12:28:28.268Z,0.50
2023-01-17T12:31:42.635Z,0.80
2023-01-17T12:34:57.512Z,0.73
2023-01-17T12:38:12.637Z,0.75
2023-01-17T12:41:28.935Z,0.20
2023-01-17T12:44:51.894Z,0.80
2023-01-17T12:48:03.242Z,0.80
2023-01-17T12:51:18.135Z,1.27
2023-01-17T12:54:31.615Z,0.95
2023-01-17T12:57:40.835Z,0.88
2023-01-17T13:00:47.962Z,1.35
2023-01-17T13:04:00.313Z,0.93
2023-01-17T13:07:25.772Z,1.30
2023-01-17T13:10:32.222Z,1.75
2023-01-17T13:13:36.141Z,1.50
2023-01-17T13:16:44.797Z,1.55
2023-01-17T13:19:56.094Z,1.53
2023-01-17T13:23:11.949Z,1.40
2023-01-17T13:26:26.108Z,3.00
2023-01-17T13:29:41.048Z,10.05
2023-01-17T13:32:56.199Z,4.72
2023-01-17T13:36:17.167Z,2.57
2023-01-17T13:39:44.172Z,1.63
2023-01-17T13:43:02.229Z,2.83
2023-01-17T13:46:05.412Z,2.72
2023-01-17T13:49:30.226Z,2.95
2023-01-17T13:52:33.681Z,3.13
2023-01-17T13:55:47.092Z,6.63
2023-01-17T13:58:54.600Z,3.38
2023-01-17T14:01:57.488Z,2.90
2023-01-17T14:05:16.314Z,2.28
2023-01-17T14:08:21.943Z,3.67
2023-01-17T14:11:24.457Z,11.03
2023-01-17T14:14:42.006Z,22.60
2023-01-17T14:17:51.716Z,12.00
2023-01-17T14:21:06.295Z,19.33
2023-01-17T14:24:13.128Z,17.97
2023-01-17T14:27:23.512Z,12.80
2023-01-17T14:30:28.083Z,10.23
2023-01-17T14:33:37.371Z,8.00
2023-01-17T14:36:39.957Z,10.02
2023-01-17T14:39:47.949Z,9.13
2023-01-17T14:43:10.794Z,5.23
2023-01-17T14:46:34.651Z,14.98
2023-01-17T14:49:37.225Z,5.75
2023-01-17T14:52:39.702Z,6.55
2023-01-17T14:55:48.056Z,5.47
2023-01-17T14:59:05.073Z,5.40
2023-01-17T15:02:16.194Z,12.32
2023-01-17T15:05:25.136Z,6.68
2023-01-17T15:08:34.768Z,6.93
2023-01-17T15:11:37.813Z,5.43
2023-01-17T15:14:44.247Z,5.67
2023-01-17T15:17:46.806Z,10.15
2023-01-17T15:21:03.611Z,12.63
2023-01-17T15:24:26.430Z,12.48
2023-01-17T15:27:29.144Z,14.33
2023-01-17T15:30:31.840Z,11.70
2023-01-17T15:33:37.352Z,12.30
2023-01-17T15:36:39.883Z,6.05
2023-01-17T15:39:42.577Z,6.43
2023-01-17T15:42:49.029Z,6.87
2023-01-17T15:45:56.934Z,5.73
2023-01-17T15:49:08.305Z,6.00
2023-01-17T15:52:15.917Z,6.22
2023-01-17T15:55:33.748Z,4.20
2023-01-17T15:58:36.267Z,25.27
2023-01-17T16:01:38.947Z,15.30
2023-01-17T16:04:42.365Z,10.52
2023-01-17T16:07:44.820Z,8.23
2023-01-17T16:10:47.420Z,10.23
2023-01-17T16:13:50.390Z,8.50
2023-01-17T16:16:53.773Z,7.40
2023-01-17T16:19:56.631Z,6.50
2023-01-17T16:23:00.377Z,12.40
2023-01-17T16:26:02.995Z,9.10
2023-01-17T16:29:07.645Z,11.50
2023-01-17T16:32:10.200Z,14.43
2023-01-17T16:35:23.910Z,4.05
2023-01-17T16:38:26.697Z,7.80
2023-01-17T16:41:29.406Z,7.07
2023-01-17T16:44:33.579Z,3.80
2023-01-17T16:47:36.074Z,3.40
2023-01-17T16:50:42.833Z,3.00
2023-01-17T16:53:45.609Z,2.53
2023-01-17T16:56:48.219Z,2.58
2023-01-17T16:59:51.179Z,3.30
2023-01-17T17:02:54.438Z,3.83
2023-01-17T17:05:59.793Z,3.25
2023-01-17T17:09:02.354Z,4.28
2023-01-17T17:12:05.962Z,3.80
2023-01-17T17:15:10.116Z,3.80
2023-01-17T17:18:17.871Z,3.30
2023-01-17T17:21:20.494Z,3.40
2023-01-17T17:24:23.147Z,4.55
2023-01-17T17:27:27.856Z,3.85
2023-01-17T17:30:31.570Z,5.07
2023-01-17T17:33:35.037Z,5.53
2023-01-17T17:36:42.283Z,4.53
2023-01-17T17:39:45.381Z,3.95
2023-01-17T17:42:47.798Z,3.90
2023-01-17T17:45:50.299Z,4.20
2023-01-17T17:48:53.193Z,3.90
2023-01-17T17:51:55.800Z,3.42
2023-01-17T17:54:58.484Z,3.35
2023-01-17T17:58:02.124Z,4.10
2023-01-17T18:01:06.277Z,5.20
2023-01-17T18:04:09.733Z,3.77
2023-01-17T18:07:12.576Z,4.13
2023-01-17T18:10:15.742Z,5.20
2023-01-17T18:13:18.567Z,4.75
2023-01-17T18:16:27.776Z,4.97
2023-01-17T18:19:30.324Z,5.67
2023-01-17T18:22:34.047Z,5.50
2023-01-17T18:25:36.782Z,5.53
2023-01-17T18:28:39.709Z,27.60
2023-01-17T18:31:46.995Z,4.90
2023-01-17T18:34:51.446Z,4.87
2023-01-17T18:37:54.161Z,4.00
2023-01-17T18:41:02.783Z,3.58
2023-01-17T18:44:06.426Z,4.25
2023-01-17T18:47:10.913Z,5.37
2023-01-17T18:50:13.806Z,4.77
2023-01-17T18:53:17.663Z,5.35
2023-01-17T18:56:22.333Z,2.75
2023-01-17T18:59:25.872Z,3.17
2023-01-17T19:02:28.535Z,3.07
2023-01-17T19:05:35.945Z,1.93
2023-01-17T19:08:38.765Z,2.00
2023-01-17T19:11:44.515Z,1.40
2023-01-17T19:14:47.217Z,1.10
2023-01-17T19:17:49.927Z,1.27
2023-01-17T19:20:52.394Z,1.00
2023-01-17T19:23:56.545Z,1.20
2023-01-17T19:26:59.367Z,1.15
2023-01-17T19:30:08.104Z,0.63
2023-01-17T19:33:10.880Z,0.50
2023-01-17T19:36:19.668Z,0.83
2023-01-17T19:39:25.424Z,0.70
2023-01-17T19:42:28.776Z,1.05
2023-01-17T19:45:31.570Z,1.13
2023-01-17T19:48:35.978Z,1.17
2023-01-17T19:51:39.913Z,1.03
2023-01-17T19:54:42.499Z,1.55
2023-01-17T19:57:45.013Z,1.15
2023-01-17T20:00:47.803Z,1.50
2023-01-17T20:03:51.390Z,1.97
2023-01-17T20:06:54.099Z,0.40
2023-01-17T20:09:57.615Z,0.82
2023-01-17T20:13:00.580Z,0.40
2023-01-17T20:16:05.232Z,0.30
2023-01-17T20:19:08.355Z,1.07
2023-01-17T20:22:11.016Z,0.80
2023-01-17T20:25:13.538Z,0.25
2023-01-17T20:28:16.861Z,0.50
2023-01-17T20:31:22.722Z,1.08
2023-01-17T20:34:25.780Z,1.17
2023-01-17T20:37:28.411Z,0.90
2023-01-17T20:40:31.687Z,1.50
2023-01-17T20:43:34.996Z,1.05
2023-01-17T20:46:41.338Z,1.10
2023-01-17T20:49:44.702Z,0.80
2023-01-17T20:52:48.543Z,0.83
2023-01-17T20:55:56.372Z,0.50
2023-01-17T20:58:58.977Z,0.75
2023-01-17T21:02:01.673Z,1.10
2023-01-17T21:05:05.046Z,0.80
2023-01-17T21:08:07.753Z,0.70
2023-01-17T21:11:13.218Z,0.90
2023-01-17T21:14:15.668Z,1.08
2023-01-17T21:17:18.585Z,0.50
2023-01-17T21:20:21.076Z,1.07
2023-01-17T21:23:29.184Z,1.20
2023-01-17T21:26:31.830Z,1.40
2023-01-17T21:29:34.448Z,1.38
2023-01-17T21:32:37.168Z,0.73
2023-01-17T21:35:39.663Z,1.17
2023-01-17T21:38:42.364Z,0.83
2023-01-17T21:41:48.023Z,0.98
2023-01-17T21:44:50.530Z,0.90
2023-01-17T21:47:53.003Z,0.93
2023-01-17T21:50:55.525Z,0.90
2023-01-17T21:53:58.103Z,0.50
2023-01-17T21:57:18.774Z,0.90
2023-01-17T22:00:21.251Z,1.15
2023-01-17T22:03:24.614Z,1.00
2023-01-17T22:06:34.442Z,1.00
2023-01-17T22:09:37.667Z,0.43
2023-01-17T22:12:40.180Z,1.00
2023-01-17T22:15:43.210Z,0.75
2023-01-17T22:18:46.919Z,1.17
2023-01-17T22:21:49.387Z,1.03
2023-01-17T22:24:51.893Z,0.83
2023-01-17T22:27:54.635Z,0.70
2023-01-17T22:30:58.081Z,0.47
2023-01-17T22:34:02.718Z,0.70
2023-01-17T22:37:10.017Z,1.00
2023-01-17T22:40:13.125Z,1.60
2023-01-17T22:43:15.580Z,1.02
2023-01-17T22:46:30.706Z,0.38
2023-01-17T22:49:33.299Z,0.73
2023-01-17T22:52:35.866Z,1.10
2023-01-17T22:55:38.429Z,0.70
2023-01-17T22:58:44.895Z,0.85
2023-01-17T23:01:47.511Z,1.35
2023-01-17T23:04:49.987Z,0.30
2023-01-17T23:07:52.520Z,0.77
2023-01-17T23:11:13.468Z,0.83
2023-01-17T23:14:17.332Z,1.00
2023-01-17T23:17:40.053Z,1.30
2023-01-17T23:20:42.691Z,0.82
2023-01-17T23:23:45.113Z,0.83
2023-01-17T23:27:07.476Z,0.60
2023-01-17T23:30:18.763Z,0.47
2023-01-17T23:33:21.251Z,0.77
2023-01-17T23:36:23.709Z,0.45
2023-01-17T23:39:28.513Z,0.53
2023-01-17T23:42:51.488Z,0.73
2023-01-17T23:45:54.774Z,1.08
2023-01-17T23:49:02.223Z,0.60
2023-01-17T23:52:05.906Z,0.93
2023-01-17T23:55:09.330Z,0.87
2023-01-17T23:58:12.624Z,0.80
